Time;durP1;ratioP1;P1;durP2;ratioP2;P2;SDS_P1;SDS_P2;PMS_P1;PMS_P2;Temp;Humidity;BMP_temperature;BMP_pressure;BME280_temperature;BME280_humidity;BME280_pressure;Samples;Min_cycle;Max_cycle;Signal;HPM_P1;HPM_P2
2022/12/15 00:39:43;;;;;;;4.25;3.03;;;;;;;10.75;53.05;102201.97;4992934;28;20134;-61
2022/12/15 00:42:10;;;;;;;3.90;3.08;;;;;;;10.78;52.39;102198.97;4992724;28;20077;-62
2022/12/15 00:44:36;;;;;;;3.70;3.35;;;;;;;10.85;52.80;102196.41;4992575;28;20018;-62
2022/12/15 00:47:03;;;;;;;4.80;3.67;;;;;;;10.47;53.44;102196.22;4992765;28;20023;-62
2022/12/15 01:22:59;;;;;;;5.97;4.00;;;;;;;10.23;55.35;102217.69;4927201;29;20056;-62
2022/12/15 01:25:45;;;;;;;5.47;3.75;;;;;;;10.29;55.53;102217.03;4935889;29;20046;-62
2022/12/15 01:28:11;;;;;;;4.30;3.58;;;;;;;10.24;55.54;102214.84;4948134;28;20161;-62
2022/12/15 01:30:38;;;;;;;4.13;3.53;;;;;;;10.21;56.04;102204.44;4954222;29;20090;-62
2022/12/15 01:33:04;;;;;;;5.18;3.75;;;;;;;10.22;56.03;102194.59;4953939;29;20126;-62
2022/12/15 01:35:31;;;;;;;4.32;3.55;;;;;;;10.15;56.25;102193.59;4954651;29;20110;-62
2022/12/15 01:37:57;;;;;;;4.35;3.50;;;;;;;10.07;56.85;102196.28;4955031;29;20047;-62
2022/12/15 01:43:21;;;;;;;4.65;3.78;;;;;;;10.06;56.74;102206.16;4955760;29;20625;-62
2022/12/15 01:45:53;;;;;;;4.40;3.63;;;;;;;9.99;56.96;102202.47;4955087;29;20027;-62
2022/12/15 01:48:53;;;;;;;6.97;4.00;;;;;;;10.01;57.18;102206.66;4954234;29;20135;-62
2022/12/15 01:51:25;;;;;;;6.93;3.90;;;;;;;10.01;57.39;102201.31;4954243;29;20463;-62
2022/12/15 01:54:13;;;;;;;5.22;4.32;;;;;;;10.01;57.39;102205.84;4957655;28;20034;-62
2022/12/15 01:56:44;;;;;;;5.15;3.80;;;;;;;9.82;57.87;102195.47;4958567;28;20031;-62
2022/12/15 01:59:15;;;;;;;4.53;3.70;;;;;;;9.76;58.09;102197.81;4954270;29;20039;-63
2022/12/15 02:01:41;;;;;;;4.05;3.72;;;;;;;9.70;58.46;102201.16;4954267;29;20035;-63
2022/12/15 02:04:08;;;;;;;4.13;3.60;;;;;;;9.66;58.47;102186.47;5006034;28;20095;-62
2022/12/15 02:06:35;;;;;;;5.70;4.53;;;;;;;9.58;58.72;102189.13;4998982;28;20467;-62
2022/12/15 02:09:02;;;;;;;9.27;4.50;;;;;;;9.61;58.77;102188.81;4995048;28;20047;-62
2022/12/15 02:11:58;;;;;;;4.35;3.45;;;;;;;9.55;59.04;102193.97;4995140;28;20109;-60
2022/12/15 02:14:46;;;;;;;6.20;4.03;;;;;;;9.55;59.02;102184.13;4995426;28;20038;-59
2022/12/15 02:17:33;;;;;;;3.60;3.30;;;;;;;9.41;59.31;102187.44;4995178;28;20033;-62
2022/12/15 02:20:48;;;;;;;7.18;4.05;;;;;;;9.05;60.68;102192.19;4998790;28;20037;-59
2022/12/15 02:23:33;;;;;;;4.35;3.95;;;;;;;9.20;60.35;102191.41;4916992;29;20052;-62
2022/12/15 02:26:10;;;;;;;6.57;4.25;;;;;;;9.17;60.50;102186.41;4988742;28;20046;-60
2022/12/15 02:28:51;;;;;;;4.13;3.70;;;;;;;9.13;59.91;102187.72;4994840;28;20036;-61
2022/12/15 02:31:48;;;;;;;6.63;3.95;;;;;;;8.87;61.25;102181.63;4994854;28;20486;-61
2022/12/15 02:34:20;;;;;;;4.53;3.42;;;;;;;8.96;60.59;102184.19;4994914;28;20027;-61
2022/12/15 02:36:50;;;;;;;4.45;3.50;;;;;;;8.99;60.33;102193.69;4994496;28;20053;-61
2022/12/15 02:39:17;;;;;;;5.30;4.60;;;;;;;9.13;60.12;102192.25;4994470;28;20030;-61
2022/12/15 02:41:46;;;;;;;7.90;6.90;;;;;;;9.10;60.20;102195.22;4994635;28;20034;-61
2022/12/15 02:44:33;;;;;;;10.40;8.75;;;;;;;9.10;60.59;102204.06;4994940;28;20084;-61
2022/12/15 02:47:04;;;;;;;12.65;10.85;;;;;;;9.08;60.66;102202.56;4994676;28;20033;-61
2022/12/15 02:49:48;;;;;;;11.95;10.68;;;;;;;9.06;60.71;102205.41;4977223;28;20026;-61
2022/12/15 02:52:30;;;;;;;10.55;9.50;;;;;;;9.04;60.81;102210.06;4976060;28;20042;-63
2022/12/15 02:55:11;;;;;;;11.88;10.07;;;;;;;8.93;60.77;102192.50;4995491;28;20038;-63
2022/12/15 02:57:54;;;;;;;10.60;9.48;;;;;;;8.89;61.08;102201.03;4977943;28;20111;-62
2022/12/15 03:00:21;;;;;;;13.52;9.88;;;;;;;8.82;61.21;102206.16;4992831;28;20109;-62
2022/12/15 03:02:53;;;;;;;8.48;7.57;;;;;;;8.95;61.30;102197.69;4994251;28;20030;-63
2022/12/15 03:05:22;;;;;;;7.93;6.18;;;;;;;8.76;61.59;102201.44;4994344;28;20019;-63
2022/12/15 03:07:53;;;;;;;8.02;6.32;;;;;;;8.69;61.54;102209.28;4986436;28;20038;-63
2022/12/15 03:10:23;;;;;;;4.88;4.35;;;;;;;8.59;62.04;102203.22;4983561;28;20042;-63
2022/12/15 03:12:50;;;;;;;5.65;4.53;;;;;;;8.53;62.02;102195.84;5005145;28;20038;-63
2022/12/15 03:15:18;;;;;;;5.20;4.70;;;;;;;8.42;62.39;102190.78;4960210;28;20118;-63
2022/12/15 03:17:44;;;;;;;5.78;4.60;;;;;;;8.34;62.46;102196.91;4974513;28;20027;-63
2022/12/15 03:20:11;;;;;;;5.93;4.85;;;;;;;8.28;62.69;102199.38;4974223;28;20093;-63
2022/12/15 03:22:38;;;;;;;5.63;4.57;;;;;;;8.21;62.92;102194.63;4986161;28;20057;-63
2022/12/15 03:25:05;;;;;;;5.28;4.30;;;;;;;8.21;63.13;102196.47;4993762;28;20443;-63
2022/12/15 03:27:31;;;;;;;5.07;4.30;;;;;;;8.19;63.57;102193.13;4993712;28;20506;-63
2022/12/15 03:29:58;;;;;;;6.50;4.63;;;;;;;8.19;63.93;102199.31;4993349;28;20100;-63
2022/12/15 03:32:25;;;;;;;6.75;4.75;;;;;;;7.98;64.35;102195.31;4988956;28;20037;-63
2022/12/15 03:34:51;;;;;;;5.72;4.22;;;;;;;8.00;64.62;102196.00;4975472;28;20634;-63
2022/12/15 03:37:17;;;;;;;6.43;5.00;;;;;;;8.04;64.77;102192.84;4993474;28;20061;-62
2022/12/15 03:39:43;;;;;;;6.18;4.43;;;;;;;7.82;65.45;102190.69;4993738;28;20062;-63
2022/12/15 03:42:10;;;;;;;5.47;4.22;;;;;;;7.79;65.58;102194.53;4993435;28;20235;-63
2022/12/15 03:44:36;;;;;;;5.20;4.50;;;;;;;7.79;65.74;102193.69;4980766;28;20540;-62
2022/12/15 03:47:03;;;;;;;6.90;4.53;;;;;;;7.79;65.66;102196.34;4993162;28;20117;-62
2022/12/15 03:49:29;;;;;;;4.90;4.40;;;;;;;7.58;66.02;102204.66;4986076;28;20066;-63
2022/12/15 03:51:55;;;;;;;5.55;4.40;;;;;;;7.49;66.31;102198.41;4973638;28;20551;-63
2022/12/15 03:54:21;;;;;;;5.97;4.38;;;;;;;7.46;66.28;102204.06;4956554;28;20033;-63
2022/12/15 03:56:48;;;;;;;7.18;4.38;;;;;;;7.34;66.62;102200.78;4991744;28;20018;-63
2022/12/15 03:59:15;;;;;;;5.70;4.50;;;;;;;7.28;66.79;102198.72;4993025;28;20174;-63
2022/12/15 04:01:47;;;;;;;4.45;4.05;;;;;;;7.24;66.88;102193.84;4991926;28;20023;-62
2022/12/15 04:04:14;;;;;;;5.15;4.10;;;;;;;7.19;67.54;102201.44;4990450;28;20018;-63
2022/12/15 04:06:40;;;;;;;6.43;4.18;;;;;;;7.27;67.29;102198.84;4992961;28;20475;-62
2022/12/15 04:09:06;;;;;;;5.03;3.70;;;;;;;7.26;68.05;102195.34;4992127;28;20105;-62
2022/12/15 04:11:33;;;;;;;4.25;3.58;;;;;;;7.08;68.22;102184.69;4992834;28;20089;-63
2022/12/15 04:13:59;;;;;;;5.82;4.40;;;;;;;7.02;68.48;102181.81;4993210;28;20096;-63
2022/12/15 04:16:25;;;;;;;4.85;4.22;;;;;;;7.03;68.22;102186.13;4992932;28;20467;-62
2022/12/15 04:20:07;;;;;;;5.55;3.75;;;;;;;7.00;68.48;102191.78;4992696;28;20037;-63
2022/12/15 04:21:37;;;;;;;4.22;3.50;;;;;;;7.08;68.13;102190.03;4992006;28;20041;-63
2022/12/15 05:32:37;;;;;;;10.77;4.68;;;;;;;5.43;77.05;102229.47;4992406;28;20038;-60
2022/12/15 05:35:04;;;;;;;5.50;4.30;;;;;;;5.40;77.14;102231.59;4992183;28;20521;-61
2022/12/15 05:37:30;;;;;;;5.03;4.53;;;;;;;5.31;77.65;102233.22;4992255;28;20585;-61
2022/12/15 05:39:56;;;;;;;5.03;4.60;;;;;;;5.22;77.95;102234.91;4991844;28;20029;-61
2022/12/15 05:42:22;;;;;;;6.22;4.70;;;;;;;5.32;77.81;102224.28;4992257;28;20054;-61
2022/12/15 05:44:49;;;;;;;5.40;4.05;;;;;;;5.33;77.67;102231.31;4992103;28;20038;-61
2022/12/15 05:47:15;;;;;;;5.85;5.05;;;;;;;5.20;77.91;102236.00;4991943;28;20486;-61
2022/12/15 05:49:41;;;;;;;6.10;4.25;;;;;;;5.25;77.83;102239.09;4991677;28;20188;-61
2022/12/15 05:52:08;;;;;;;5.55;4.35;;;;;;;5.15;77.93;102233.75;4992138;28;20498;-61
2022/12/15 05:54:34;;;;;;;5.07;4.18;;;;;;;5.39;77.52;102245.84;4974826;28;20026;-61
2022/12/15 05:57:00;;;;;;;5.88;4.53;;;;;;;5.39;77.08;102241.38;4992613;28;20030;-61
2022/12/15 05:59:27;;;;;;;5.72;4.47;;;;;;;5.53;76.36;102248.91;4995401;28;20038;-59
2022/12/15 06:01:53;;;;;;;8.02;4.72;;;;;;;5.35;76.96;102255.88;4995481;28;20034;-59
2022/12/15 06:04:19;;;;;;;6.20;4.93;;;;;;;5.42;76.56;102241.06;4995298;28;20114;-59
2022/12/15 06:06:45;;;;;;;4.45;4.03;;;;;;;5.26;76.91;102251.38;4995588;28;20030;-60
2022/12/15 06:09:11;;;;;;;5.18;4.53;;;;;;;5.37;76.57;102253.09;4994710;28;20050;-60
2022/12/15 06:11:38;;;;;;;8.65;4.22;;;;;;;5.31;76.32;102251.81;4995190;28;20072;-60
2022/12/15 06:14:04;;;;;;;7.13;4.82;;;;;;;5.36;76.75;102259.38;4993125;28;20118;-60
2022/12/15 06:16:31;;;;;;;8.75;5.03;;;;;;;5.26;76.52;102260.19;4993978;28;20073;-60
2022/12/15 06:18:59;;;;;;;5.88;4.43;;;;;;;5.35;76.59;102263.84;4991995;28;20114;-60
2022/12/15 06:21:34;;;;;;;7.05;4.55;;;;;;;5.41;76.26;102268.59;4993459;28;20034;-59
2022/12/15 06:24:01;;;;;;;9.40;4.40;;;;;;;5.42;75.89;102270.28;4992397;28;20041;-60
2022/12/15 06:26:31;;;;;;;5.78;4.40;;;;;;;5.20;76.69;102262.56;4991604;28;20060;-60
2022/12/15 06:29:17;;;;;;;6.35;4.53;;;;;;;5.26;76.50;102273.47;4972317;28;20050;-59
2022/12/15 06:31:44;;;;;;;4.90;4.35;;;;;;;5.27;76.51;102272.50;4973039;28;20113;-62
2022/12/15 06:34:13;;;;;;;6.13;4.43;;;;;;;5.04;77.37;102281.63;4973253;28;20053;-62
2022/12/15 06:36:41;;;;;;;6.72;3.92;;;;;;;5.11;77.02;102293.41;4972417;28;20031;-62
2022/12/15 06:39:11;;;;;;;5.72;4.22;;;;;;;5.09;77.05;102290.03;4918760;29;20039;-62
2022/12/15 06:41:37;;;;;;;7.00;4.65;;;;;;;5.10;77.10;102297.03;4934714;29;20082;-60
2022/12/15 06:44:05;;;;;;;5.63;4.80;;;;;;;5.07;77.24;102294.66;4966446;28;20121;-62
2022/12/15 06:46:33;;;;;;;8.32;4.43;;;;;;;5.01;77.13;102301.34;4972850;28;20035;-62
2022/12/15 06:49:00;;;;;;;5.50;5.00;;;;;;;5.20;76.84;102305.03;4972822;28;20065;-62
2022/12/15 06:51:27;;;;;;;5.40;4.28;;;;;;;5.15;76.66;102304.59;4973007;28;20027;-61
2022/12/15 06:53:54;;;;;;;7.00;4.90;;;;;;;5.19;76.42;102306.00;4968970;28;20039;-62
2022/12/15 06:56:29;;;;;;;6.03;4.90;;;;;;;5.15;76.30;102308.06;4938945;23;20048;-62
2022/12/15 06:58:57;;;;;;;6.70;4.25;;;;;;;5.13;76.25;102303.91;4936507;29;20098;-62
2022/12/15 07:01:24;;;;;;;4.97;4.25;;;;;;;5.21;76.03;102309.34;4919872;29;20036;-62
2022/12/15 07:04:10;;;;;;;4.85;4.38;;;;;;;5.26;75.99;102310.63;4936469;29;20527;-61
2022/12/15 07:06:38;;;;;;;6.97;4.80;;;;;;;5.21;75.67;102314.66;4953150;29;20048;-62
2022/12/15 07:09:07;;;;;;;5.78;4.72;;;;;;;5.21;75.74;102318.16;4951891;28;20452;-62
2022/12/15 07:11:34;;;;;;;5.60;4.78;;;;;;;5.30;75.10;102321.81;4940740;29;20193;-62
2022/12/15 07:14:02;;;;;;;6.80;5.65;;;;;;;5.25;75.17;102324.03;4953321;29;20028;-62
2022/12/15 07:16:49;;;;;;;6.38;5.25;;;;;;;5.34;75.23;102314.44;4953263;29;20035;-62
2022/12/15 07:19:16;;;;;;;6.50;5.72;;;;;;;5.35;74.67;102319.59;4933180;29;20592;-61
2022/12/15 07:21:42;;;;;;;9.70;6.30;;;;;;;5.59;74.34;102316.59;4933927;29;20044;-62
2022/12/15 07:24:11;;;;;;;9.32;5.97;;;;;;;5.39;74.31;102313.06;4923975;29;20572;-62
2022/12/15 07:26:38;;;;;;;6.35;5.68;;;;;;;5.28;75.19;102315.81;4924545;29;20094;-62
2022/12/15 07:29:04;;;;;;;6.80;4.90;;;;;;;5.14;75.86;102306.41;4943724;29;20035;-61
2022/12/15 07:31:31;;;;;;;6.78;5.32;;;;;;;4.73;77.08;102317.97;4953063;29;20116;-61
2022/12/15 07:33:58;;;;;;;7.53;5.75;;;;;;;4.82;77.33;102322.47;4946322;29;20039;-62
2022/12/15 07:36:26;;;;;;;8.68;5.78;;;;;;;4.85;77.10;102322.22;4940427;29;20050;-62
2022/12/15 07:39:00;;;;;;;9.90;5.70;;;;;;;4.70;77.94;102323.53;4932077;29;20694;-61
2022/12/15 07:41:29;;;;;;;6.25;5.65;;;;;;;4.64;78.24;102332.84;4925730;28;20027;-61
2022/12/15 07:43:55;;;;;;;7.50;6.03;;;;;;;4.34;79.40;102333.63;4899243;29;20119;-61
2022/12/15 07:46:22;;;;;;;8.57;6.55;;;;;;;4.23;80.09;102329.22;4904875;29;20036;-62
2022/12/15 07:48:49;;;;;;;8.25;6.07;;;;;;;4.07;80.64;102320.03;4911642;29;20063;-60
2022/12/15 07:51:35;;;;;;;8.00;6.50;;;;;;;4.21;80.69;102320.53;4912896;29;20131;-62
2022/12/15 07:54:02;;;;;;;7.60;5.97;;;;;;;4.31;80.09;102317.97;4933250;29;20047;-62
2022/12/15 07:56:28;;;;;;;8.35;5.80;;;;;;;4.18;80.63;102317.34;4940802;29;20043;-62
2022/12/15 07:58:54;;;;;;;8.52;6.15;;;;;;;4.17;80.88;102318.31;4952292;29;20462;-62
2022/12/15 08:01:20;;;;;;;8.48;5.53;;;;;;;4.04;80.93;102318.47;4952292;29;20228;-61
2022/12/15 08:03:48;;;;;;;6.63;5.57;;;;;;;4.04;81.25;102313.16;4951634;29;20034;-61
2022/12/15 08:06:15;;;;;;;7.20;5.88;;;;;;;4.04;81.50;102320.28;4952176;29;20158;-61
2022/12/15 08:08:44;;;;;;;5.85;5.07;;;;;;;4.15;81.15;102321.06;4951726;29;20027;-61
2022/12/15 08:11:13;;;;;;;7.68;6.13;;;;;;;4.01;81.47;102315.25;4936136;29;20030;-61
2022/12/15 08:13:41;;;;;;;7.63;5.57;;;;;;;3.96;81.75;102321.75;4951935;29;20055;-61
2022/12/15 08:16:07;;;;;;;6.75;5.88;;;;;;;3.89;82.06;102320.59;4952140;29;20055;-61
2022/12/15 08:18:33;;;;;;;6.72;5.95;;;;;;;4.18;81.41;102314.69;4951657;29;20563;-61
2022/12/15 08:21:05;;;;;;;7.38;6.57;;;;;;;4.25;80.81;102315.84;4951364;28;20043;-61
2022/12/15 08:23:32;;;;;;;7.10;6.15;;;;;;;4.17;81.04;102315.66;4951804;29;20427;-61
2022/12/15 08:26:06;;;;;;;6.25;5.40;;;;;;;4.17;80.81;102316.50;4946631;29;20412;-61
2022/12/15 08:28:34;;;;;;;6.93;5.80;;;;;;;4.39;80.67;102309.41;4932464;29;20039;-61
2022/12/15 08:31:05;;;;;;;10.57;5.93;;;;;;;4.37;80.40;102306.00;4927248;29;20044;-61
2022/12/15 08:33:32;;;;;;;6.50;5.55;;;;;;;4.28;80.37;102305.00;4916182;29;20083;-61
2022/12/15 08:36:04;;;;;;;9.32;6.38;;;;;;;4.02;81.30;102301.88;4918635;29;20039;-60
2022/12/15 08:38:31;;;;;;;7.05;5.88;;;;;;;4.06;81.47;102300.66;4934414;29;20111;-60
2022/12/15 08:40:57;;;;;;;7.28;5.55;;;;;;;4.03;81.79;102300.06;4934513;29;20044;-60
2022/12/15 08:43:24;;;;;;;6.47;5.75;;;;;;;3.95;81.86;102298.88;4934900;29;20027;-60
2022/12/15 08:45:50;;;;;;;9.23;6.28;;;;;;;3.86;82.66;102304.94;4934557;29;20028;-60
2022/12/15 08:48:16;;;;;;;8.73;6.30;;;;;;;3.73;83.40;102296.31;4934800;29;20043;-60
2022/12/15 08:50:44;;;;;;;7.95;6.88;;;;;;;3.70;83.64;102292.09;4972257;23;20087;-60
2022/12/15 08:53:11;;;;;;;7.25;6.38;;;;;;;3.69;83.59;102285.13;5031343;28;20441;-60
2022/12/15 08:55:38;;;;;;;7.82;7.00;;;;;;;3.73;83.37;102287.53;5031641;28;20057;-60
2022/12/15 08:58:04;;;;;;;7.78;6.57;;;;;;;3.69;83.61;102287.78;5031662;28;20030;-60
2022/12/15 09:00:30;;;;;;;8.48;7.00;;;;;;;3.85;83.48;102287.38;5028154;28;20094;-60
2022/12/15 09:03:00;;;;;;;8.00;7.13;;;;;;;3.87;83.37;102281.94;5030762;28;20049;-61
2022/12/15 09:05:26;;;;;;;11.43;8.30;;;;;;;3.88;83.18;102278.31;5030265;28;20029;-60
2022/12/15 09:07:56;;;;;;;8.15;7.22;;;;;;;3.88;83.46;102273.84;5031699;28;20018;-60
2022/12/15 09:10:23;;;;;;;8.50;7.65;;;;;;;3.74;83.89;102273.34;5032258;28;20024;-60
2022/12/15 09:12:50;;;;;;;8.38;7.45;;;;;;;3.82;83.99;102270.88;5031633;28;20386;-60
2022/12/15 09:15:17;;;;;;;9.82;7.78;;;;;;;3.85;83.63;102263.53;5031957;28;20034;-60
2022/12/15 09:17:44;;;;;;;8.55;7.60;;;;;;;3.91;83.47;102268.31;5031758;28;20068;-60
2022/12/15 09:20:11;;;;;;;8.38;7.50;;;;;;;3.76;83.89;102252.84;5031387;28;20049;-60
2022/12/15 09:22:37;;;;;;;10.45;7.60;;;;;;;3.72;83.86;102257.56;5031496;28;20037;-60
2022/12/15 09:25:04;;;;;;;9.50;7.20;;;;;;;3.66;83.90;102255.41;5031402;28;20100;-60
2022/12/15 09:27:31;;;;;;;8.82;7.50;;;;;;;3.67;83.70;102255.31;5021269;28;20026;-60
2022/12/15 09:29:57;;;;;;;10.13;7.97;;;;;;;3.56;84.29;102262.44;5031384;28;20029;-60
2022/12/15 09:32:24;;;;;;;8.73;7.78;;;;;;;3.55;84.80;102258.09;5034210;28;20108;-60
2022/12/15 09:34:50;;;;;;;8.20;7.13;;;;;;;3.62;84.80;102252.19;5034990;28;20390;-60
2022/12/15 09:37:17;;;;;;;9.13;8.15;;;;;;;3.65;84.72;102253.72;5040469;28;20033;-60
2022/12/15 09:39:43;;;;;;;7.75;6.88;;;;;;;3.61;84.93;102255.81;5054776;28;20036;-60
2022/12/15 09:42:36;;;;;;;9.63;8.35;;;;;;;3.60;84.99;102255.91;5054813;28;20025;-61
2022/12/15 09:45:20;;;;;;;9.68;7.75;;;;;;;3.61;85.11;102270.81;5052481;28;20041;-60
2022/12/15 09:48:01;;;;;;;8.85;7.95;;;;;;;3.69;84.96;102258.66;5054645;28;20029;-60
2022/12/15 09:50:53;;;;;;;8.98;8.05;;;;;;;3.60;85.20;102261.19;5054432;28;20584;-60
2022/12/15 09:53:24;;;;;;;9.05;8.07;;;;;;;3.55;85.21;102248.34;5052034;28;20068;-60
2022/12/15 09:56:00;;;;;;;9.65;8.38;;;;;;;3.51;85.09;102254.03;5054623;28;20109;-60
2022/12/15 09:58:57;;;;;;;10.15;8.60;;;;;;;3.39;85.89;102248.78;5054384;28;20127;-60
2022/12/15 10:01:58;;;;;;;9.45;7.78;;;;;;;3.41;85.82;102251.28;5055364;28;20027;-60
2022/12/15 10:04:49;;;;;;;11.77;8.18;;;;;;;3.39;85.84;102251.44;5016683;28;20052;-60
2022/12/15 10:07:28;;;;;;;10.43;9.32;;;;;;;3.41;86.05;102253.94;5051117;28;20116;-60
2022/12/15 10:09:55;;;;;;;10.70;8.82;;;;;;;3.39;85.90;102264.66;5066123;28;20047;-60
2022/12/15 10:12:36;;;;;;;12.18;9.07;;;;;;;3.44;85.65;102273.06;5053067;28;20020;-60
2022/12/15 10:15:45;;;;;;;9.15;8.10;;;;;;;3.49;85.66;102271.84;5034562;28;20117;-60
2022/12/15 10:18:26;;;;;;;11.07;8.85;;;;;;;3.44;85.69;102267.78;4953485;29;20031;-60
2022/12/15 10:20:54;;;;;;;10.43;7.93;;;;;;;3.51;84.94;102272.56;4953916;29;20510;-60
2022/12/15 10:23:20;;;;;;;10.43;8.75;;;;;;;3.42;85.40;102272.34;5015308;28;20094;-60
2022/12/15 10:26:18;;;;;;;9.80;8.63;;;;;;;3.39;85.76;102272.59;5050485;28;20033;-60
2022/12/15 10:29:20;;;;;;;13.98;8.18;;;;;;;3.34;85.89;102268.63;5021381;28;20120;-60
2022/12/15 10:32:03;;;;;;;11.70;9.32;;;;;;;3.27;86.54;102262.13;5033833;28;20022;-60
2022/12/15 10:34:36;;;;;;;12.70;9.75;;;;;;;3.25;86.71;102267.56;5034163;28;20042;-60
2022/12/15 10:37:03;;;;;;;11.93;10.38;;;;;;;3.23;86.79;102260.72;5053811;28;20762;-60
2022/12/15 10:39:40;;;;;;;11.38;9.80;;;;;;;3.26;87.13;102248.06;5053357;28;20029;-60
2022/12/15 10:42:24;;;;;;;11.52;10.32;;;;;;;3.33;87.32;102249.28;5053568;28;20032;-60
2022/12/15 10:44:56;;;;;;;13.30;10.40;;;;;;;3.37;87.13;102240.09;5053883;28;20029;-60
2022/12/15 10:47:31;;;;;;;12.10;10.85;;;;;;;3.39;87.23;102242.66;5053753;28;20020;-60
2022/12/15 10:50:21;;;;;;;13.07;11.13;;;;;;;3.39;87.16;102227.59;5053717;28;20347;-60
2022/12/15 10:52:48;;;;;;;10.82;9.70;;;;;;;3.42;86.65;102229.97;5054248;28;20021;-60
2022/12/15 10:55:40;;;;;;;11.00;9.70;;;;;;;3.35;86.58;102226.16;5053696;28;20028;-60
2022/12/15 10:58:21;;;;;;;11.65;10.52;;;;;;;3.42;86.44;102227.34;5053235;28;20017;-60
2022/12/15 11:01:03;;;;;;;12.68;10.43;;;;;;;3.38;86.20;102220.59;5053378;28;20109;-59
2022/12/15 11:03:36;;;;;;;12.57;9.52;;;;;;;3.31;86.62;102222.06;5053413;28;20025;-60
2022/12/15 11:06:13;;;;;;;10.93;9.82;;;;;;;3.28;86.63;102222.34;5053400;28;20029;-59
2022/12/15 11:08:42;;;;;;;14.15;10.73;;;;;;;3.34;86.85;102223.66;5053162;28;20021;-60
2022/12/15 11:14:24;;;;;;;12.50;10.23;;;;;;;3.44;86.24;102213.97;5044170;28;20035;-60
2022/12/15 11:16:53;;;;;;;13.63;11.40;;;;;;;3.51;86.17;102222.28;5051654;28;20033;-60
2022/12/15 11:19:39;;;;;;;11.55;9.35;;;;;;;3.54;86.25;102217.53;5060624;28;20033;-60
2022/12/15 11:22:16;;;;;;;11.95;9.75;;;;;;;3.54;85.78;102212.25;5052621;28;20037;-60
2022/12/15 11:24:53;;;;;;;11.95;9.30;;;;;;;3.70;85.21;102211.81;5051300;28;20025;-60
2022/12/15 11:27:37;;;;;;;10.50;9.50;;;;;;;3.75;84.49;102199.03;5050755;28;20096;-60
2022/12/15 11:30:35;;;;;;;14.90;9.57;;;;;;;3.79;84.41;102202.28;5052729;28;20104;-60
2022/12/15 11:33:02;;;;;;;10.55;9.45;;;;;;;3.80;84.29;102207.44;5052488;28;20036;-60
2022/12/15 11:35:34;;;;;;;10.60;9.43;;;;;;;3.80;84.43;102199.50;5052821;28;20021;-60
2022/12/15 11:38:27;;;;;;;10.73;8.82;;;;;;;3.85;84.22;102193.81;5052558;28;20037;-60
2022/12/15 11:40:57;;;;;;;11.23;8.98;;;;;;;3.81;83.73;102195.88;5052927;28;20032;-60
2022/12/15 11:44:00;;;;;;;9.80;8.57;;;;;;;3.81;84.09;102193.22;5052842;28;20036;-59
2022/12/15 11:46:36;;;;;;;10.50;9.27;;;;;;;3.75;83.58;102188.44;5050192;22;20092;-60
2022/12/15 11:49:35;;;;;;;12.32;10.23;;;;;;;3.70;84.36;102177.41;5026950;28;20036;-60
2022/12/15 11:52:05;;;;;;;10.57;9.57;;;;;;;3.80;84.38;102182.78;5032777;28;20037;-60
2022/12/15 11:55:15;;;;;;;10.00;8.85;;;;;;;3.74;84.15;102185.94;5020476;28;20312;-60
2022/12/15 11:58:10;;;;;;;10.10;9.00;;;;;;;3.75;84.63;102183.16;4951868;29;20123;-60
2022/12/15 12:00:44;;;;;;;10.38;9.15;;;;;;;3.79;84.24;102184.59;5019125;28;20053;-60
2022/12/15 12:03:47;;;;;;;10.43;8.60;;;;;;;3.71;84.00;102184.38;5032515;28;20083;-60
2022/12/15 12:06:32;;;;;;;8.57;7.78;;;;;;;3.81;84.27;102192.38;5032577;28;20083;-60
2022/12/15 12:09:01;;;;;;;9.77;8.77;;;;;;;3.71;84.39;102181.72;5031975;28;20033;-60
2022/12/15 12:11:39;;;;;;;9.70;8.75;;;;;;;3.80;84.05;102183.59;5032251;28;20120;-60
2022/12/15 12:14:14;;;;;;;9.65;8.00;;;;;;;3.88;83.63;102178.50;5032133;28;20109;-60
2022/12/15 12:17:08;;;;;;;8.90;7.85;;;;;;;3.72;84.14;102172.84;5031748;28;20076;-60
2022/12/15 12:19:44;;;;;;;10.77;8.57;;;;;;;4.01;84.02;102166.88;5004042;28;20041;-60
2022/12/15 12:22:33;;;;;;;9.73;8.38;;;;;;;4.03;83.86;102165.75;5012446;28;20026;-60
2022/12/15 12:25:04;;;;;;;8.02;7.22;;;;;;;4.20;83.15;102164.31;5013297;28;20038;-60
2022/12/15 12:27:44;;;;;;;8.75;7.85;;;;;;;4.21;83.38;102172.13;5024810;28;20466;-60
2022/12/15 12:30:17;;;;;;;8.52;7.72;;;;;;;4.08;83.67;102168.03;5009260;28;20034;-60
2022/12/15 12:33:01;;;;;;;7.63;6.90;;;;;;;4.07;82.95;102164.53;5012378;28;20034;-60
2022/12/15 12:35:36;;;;;;;9.73;8.10;;;;;;;4.36;82.55;102156.72;5012158;28;20489;-60
2022/12/15 12:38:11;;;;;;;9.13;8.13;;;;;;;4.49;82.27;102159.13;5012047;28;20022;-60
2022/12/15 12:40:39;;;;;;;9.05;8.10;;;;;;;4.50;82.42;102155.53;5012529;28;20112;-60
2022/12/15 12:43:08;;;;;;;7.85;7.03;;;;;;;4.58;82.18;102160.16;5012101;28;20047;-60
2022/12/15 12:46:02;;;;;;;8.68;7.45;;;;;;;4.71;81.52;102161.59;5012294;28;20057;-60
2022/12/15 12:48:54;;;;;;;11.68;8.00;;;;;;;4.82;80.83;102162.47;4997092;28;20037;-60
2022/12/15 12:51:30;;;;;;;9.00;7.50;;;;;;;4.83;80.41;102161.47;5006201;28;20022;-60
2022/12/15 12:53:57;;;;;;;8.80;7.95;;;;;;;4.80;80.27;102165.25;5003231;28;20038;-59
2022/12/15 12:56:35;;;;;;;7.60;6.90;;;;;;;4.79;80.26;102155.63;5003977;28;20483;-59
2022/12/15 12:59:07;;;;;;;8.27;7.43;;;;;;;4.67;80.33;102159.38;5009082;28;20032;-60
2022/12/15 13:01:38;;;;;;;8.32;7.53;;;;;;;4.85;80.19;102156.91;5012057;28;20106;-62
2022/12/15 13:04:32;;;;;;;9.27;7.75;;;;;;;4.75;80.38;102152.38;5010819;28;20467;-61
2022/12/15 13:07:06;;;;;;;8.38;7.57;;;;;;;4.81;80.54;102147.53;5014605;28;20022;-61
2022/12/15 13:09:43;;;;;;;8.10;7.30;;;;;;;4.79;80.49;102139.72;5013632;28;20029;-61
2022/12/15 13:12:46;;;;;;;7.65;6.93;;;;;;;4.83;80.46;102140.25;5016241;28;20037;-60
2022/12/15 13:15:36;;;;;;;8.25;7.45;;;;;;;4.92;79.56;102136.78;4997858;28;20045;-60
2022/12/15 13:18:07;;;;;;;7.25;6.55;;;;;;;4.98;79.45;102134.41;4994689;28;20495;-61
2022/12/15 13:20:36;;;;;;;7.72;6.45;;;;;;;4.90;79.74;102131.63;4996140;28;20485;-61
2022/12/15 13:23:21;;;;;;;7.15;6.45;;;;;;;4.89;79.04;102137.09;5002344;28;20030;-61
2022/12/15 13:25:59;;;;;;;7.13;6.47;;;;;;;5.10;78.21;102135.13;5006666;28;20343;-60
2022/12/15 13:28:43;;;;;;;7.47;6.78;;;;;;;4.98;79.09;102136.25;4995526;28;20049;-60
2022/12/15 13:31:15;;;;;;;11.00;6.55;;;;;;;5.12;78.28;102135.84;4995851;28;20030;-60
2022/12/15 13:33:54;;;;;;;8.18;7.30;;;;;;;5.00;78.10;102132.50;4995872;28;20031;-60
2022/12/15 13:36:36;;;;;;;7.68;6.38;;;;;;;5.00;78.42;102137.78;5008802;28;20054;-60
2022/12/15 13:39:11;;;;;;;8.63;6.63;;;;;;;5.10;77.64;102134.28;5012613;28;20046;-60
2022/12/15 13:41:57;;;;;;;;;;;;;;;4.98;78.58;102136.25;5015774;28;20426;-60
2022/12/15 13:44:23;;;;;;;7.03;6.35;;;;;;;5.05;78.06;102137.34;4985546;28;20342;-60
2022/12/15 13:46:53;;;;;;;7.07;6.22;;;;;;;5.31;77.07;102137.66;4995424;28;20065;-61
2022/12/15 13:49:30;;;;;;;7.78;6.43;;;;;;;5.24;77.07;102134.72;4995512;28;20066;-60
2022/12/15 13:52:30;;;;;;;7.20;6.30;;;;;;;5.35;76.74;102133.75;4995610;28;20023;-61
2022/12/15 13:55:02;;;;;;;7.07;6.40;;;;;;;5.42;75.99;102134.88;4995868;28;20471;-61
2022/12/15 13:57:42;;;;;;;7.47;6.78;;;;;;;5.44;75.79;102132.91;4995474;28;20069;-60
2022/12/15 14:00:17;;;;;;;8.35;7.18;;;;;;;5.27;76.27;102131.81;5007366;28;20497;-61
2022/12/15 14:02:44;;;;;;;7.73;6.93;;;;;;;5.07;76.63;102142.53;5004575;28;20117;-61
2022/12/15 14:05:21;;;;;;;7.68;6.88;;;;;;;5.11;76.50;102131.53;4995295;28;20030;-61
2022/12/15 14:07:57;;;;;;;7.28;6.57;;;;;;;5.08;76.90;102134.44;4997946;28;20038;-61
2022/12/15 14:10:42;;;;;;;6.93;6.35;;;;;;;4.91;77.15;102135.94;5012891;28;20029;-61
2022/12/15 14:13:27;;;;;;;9.93;7.10;;;;;;;4.80;77.62;102140.53;5015068;28;20073;-61
2022/12/15 14:16:13;;;;;;;7.60;6.70;;;;;;;5.01;77.31;102131.50;5013047;28;20072;-61
2022/12/15 14:18:43;;;;;;;7.13;6.43;;;;;;;4.87;77.44;102129.25;5013406;28;20026;-61
2022/12/15 14:21:21;;;;;;;7.35;6.65;;;;;;;4.96;76.66;102117.81;5016392;28;20501;-61
2022/12/15 14:23:48;;;;;;;7.93;6.13;;;;;;;4.94;77.18;102109.16;5013665;28;20498;-54
2022/12/15 14:26:15;;;;;;;6.82;6.18;;;;;;;4.89;76.90;102099.94;5009755;28;20029;-58
2022/12/15 14:28:44;;;;;;;6.43;5.82;;;;;;;5.03;76.23;102115.44;5013068;28;20092;-59